createdAt,value
2023-04-14T00:00:02.295Z,1004.1
2023-04-14T00:15:02.714Z,1004.2
2023-04-14T00:30:03.195Z,1004.3
2023-04-14T00:45:02.569Z,1004.5
2023-04-14T01:00:03.247Z,1004.9
2023-04-14T01:15:02.471Z,1004.6
2023-04-14T01:30:02.912Z,1004.8
2023-04-14T01:45:02.319Z,1004.6
2023-04-14T02:00:02.789Z,1004.8
2023-04-14T02:15:03.225Z,1004.7
2023-04-14T02:30:02.627Z,1004.8
2023-04-14T02:45:03.200Z,1004.6
2023-04-14T03:00:02.484Z,1004.8
2023-04-14T03:15:02.966Z,1004.9
2023-04-14T03:30:02.402Z,1004.8
2023-04-14T03:45:02.831Z,1005.1
2023-04-14T04:00:02.338Z,1005.1
2023-04-14T04:15:02.686Z,1005.2
2023-04-14T04:30:02.316Z,1005.2
2023-04-14T04:45:02.579Z,1005.1
2023-04-14T05:00:03.251Z,1005.2
2023-04-14T05:15:02.479Z,1005.4
2023-04-14T05:30:02.925Z,1005.4
2023-04-14T05:45:02.360Z,1005.4
2023-04-14T06:00:02.771Z,1005.5
2023-04-14T06:15:03.264Z,1005.6
2023-04-14T06:30:02.677Z,1005.6
2023-04-14T06:45:03.257Z,1005.4
2023-04-14T07:00:02.538Z,1005.4
2023-04-14T07:15:03.173Z,1005.4
2023-04-14T07:30:02.436Z,1005.4
2023-04-14T07:45:02.878Z,1005.4
2023-04-14T08:00:02.285Z,1005.3
2023-04-14T08:15:02.724Z,1005.5
2023-04-14T08:30:03.269Z,1005.5
2023-04-14T08:45:02.570Z,1005.4
2023-04-14T09:00:03.214Z,1005.4
2023-04-14T09:15:02.480Z,1005.3
2023-04-14T09:30:02.900Z,1005.2
2023-04-14T09:45:02.322Z,1005.1
2023-04-14T10:00:02.733Z,1005.1
2023-04-14T10:15:03.294Z,1005.0
2023-04-14T10:30:02.638Z,1004.9
2023-04-14T10:45:03.344Z,1004.7
2023-04-14T11:00:02.553Z,1004.6
2023-04-14T11:15:02.956Z,1004.6
2023-04-14T11:30:02.382Z,1004.6
2023-04-14T11:45:02.851Z,1004.5
2023-04-14T12:00:02.320Z,1004.3
2023-04-14T12:15:02.710Z,1004.3
2023-04-14T12:30:03.340Z,1004.1
2023-04-14T12:45:02.545Z,1004.1
2023-04-14T13:00:03.015Z,1003.9
2023-04-14T13:15:02.422Z,1003.8
2023-04-14T13:30:02.923Z,1003.7
2023-04-14T13:45:02.354Z,1003.5
2023-04-14T14:00:02.765Z,1003.3
2023-04-14T14:15:03.392Z,1003.3
2023-04-14T14:30:02.640Z,1003.1
2023-04-14T14:45:03.093Z,1003.2
2023-04-14T15:00:02.450Z,1003.3
2023-04-14T15:15:02.912Z,1003.2
2023-04-14T15:30:02.392Z,1003.2
2023-04-14T15:45:02.844Z,1003.1
2023-04-14T16:00:02.422Z,1003.1
2023-04-14T16:15:02.723Z,1003.0
2023-04-14T16:30:03.383Z,1003.1
2023-04-14T16:45:02.621Z,1003.0
2023-04-14T17:00:03.063Z,1003.0
2023-04-14T17:15:02.441Z,1003.2
2023-04-14T17:30:02.887Z,1003.2
2023-04-14T17:45:02.381Z,1003.3
2023-04-14T18:00:02.804Z,1003.4
2023-04-14T18:15:03.419Z,1003.5
2023-04-14T18:30:02.662Z,1003.6
2023-04-14T18:45:03.094Z,1003.9
2023-04-14T19:00:02.553Z,1004.0
2023-04-14T19:15:02.988Z,1004.1
2023-04-14T19:30:02.423Z,1004.2
2023-04-14T19:45:02.867Z,1004.3
2023-04-14T20:00:02.387Z,1004.3
2023-04-14T20:15:02.726Z,1004.2
2023-04-14T20:30:03.378Z,1004.3
2023-04-14T20:45:02.620Z,1004.4
2023-04-14T21:00:03.055Z,1004.4
2023-04-14T21:15:44.132Z,1004.4
2023-04-14T21:45:02.512Z,1004.5
2023-04-14T22:00:02.815Z,1004.3
2023-04-14T22:15:02.437Z,1004.5
2023-04-14T22:30:02.708Z,1004.4
2023-04-14T22:45:03.110Z,1004.6
2023-04-14T23:00:02.556Z,1004.6
2023-04-14T23:15:02.998Z,1004.7
2023-04-14T23:30:02.440Z,1004.8
2023-04-14T23:45:02.867Z,1004.9
